KDRI/DRI METAR and TAF weather

Enter ICAO airport designator
Station Type Date Time Source
KDRI METAR 2019/06/20 07:55 UTC NOAA

KDRI 200755Z AUTO 21004KT 7SM SCT009 SCT015 SCT039 26/25 A2991 RMK AO2 T02580250


Station Type Date Time Source
KDRI Decoded METAR 2019/06/20 07:55 UTC NOAA

De Ridder, Beauregard Parish Airport, LA, United States (KDRI) 30-49-54N 093-20-23W
Jun 20, 2019 - 03:55 AM EDT / 2019.06.20 0755 UTC
Wind: from the SSW (210 degrees) at 5 MPH (4 KT):0
Visibility: 7 mile(s):0
Sky conditions: partly cloudy
Temperature: 78.4 F (25.8 C)
Dew Point: 77.0 F (25.0 C)
Relative Humidity: 95%
Pressure (altimeter): 29.91 in. Hg (1012 hPa)
ob: KDRI 200755Z AUTO 21004KT 7SM SCT009 SCT015 SCT039 26/25 A2991 RMK AO2 T02580250
cycle: 8

Station Type Date Time Source
KDRI TAF UTC NOAA

Error!

Example: see airport list